createdAt,value
2019-05-01T00:01:11.891Z,74.6704
2019-05-01T00:03:16.185Z,74.7070
2019-05-01T00:05:19.946Z,74.6033
2019-05-01T00:07:24.011Z,74.3958
2019-05-01T00:09:27.770Z,74.3958
2019-05-01T00:11:31.732Z,74.2920
2019-05-01T00:13:35.401Z,74.0845
2019-05-01T00:15:38.825Z,73.9136
2019-05-01T00:17:42.539Z,73.6023
2019-05-01T00:19:46.087Z,73.1873
2019-05-01T00:21:50.015Z,72.7722
2019-05-01T00:23:53.753Z,72.4976
2019-05-01T00:25:57.825Z,72.4976
2019-05-01T00:28:01.809Z,72.2900
2019-05-01T00:30:05.257Z,71.9788
2019-05-01T00:32:08.957Z,72.0093
2019-05-01T00:34:12.617Z,71.8018
2019-05-01T00:36:16.296Z,71.3867
2019-05-01T00:38:20.025Z,71.1792
2019-05-01T00:40:23.664Z,71.0754
2019-05-01T00:42:27.711Z,70.8679
2019-05-01T00:44:31.426Z,70.5627
2019-05-01T00:46:35.091Z,70.3552
2019-05-01T00:48:38.170Z,70.2515
2019-05-01T00:50:41.437Z,70.1477
2019-05-01T00:52:45.959Z,70.0439
2019-05-01T00:54:49.567Z,69.9402
2019-05-01T00:56:53.454Z,69.9402
2019-05-01T00:58:57.052Z,69.9707
2019-05-01T01:01:00.686Z,69.9707
2019-05-01T01:03:04.097Z,69.7632
2019-05-01T01:05:07.618Z,69.6594
2019-05-01T01:07:11.086Z,69.6594
2019-05-01T01:09:14.959Z,69.7632
2019-05-01T01:11:18.693Z,69.8975
2019-05-01T01:13:23.095Z,70.0012
2019-05-01T01:15:26.732Z,69.8975
2019-05-01T01:17:30.404Z,69.8975
2019-05-01T01:19:33.955Z,70.3125
2019-05-01T01:21:37.999Z,70.5200
2019-05-01T01:23:41.911Z,70.5200
2019-05-01T01:25:45.517Z,70.6238
2019-05-01T01:27:49.280Z,70.5200
2019-05-01T01:29:53.462Z,70.5200
2019-05-01T01:31:58.044Z,70.3125
2019-05-01T01:34:02.238Z,70.3125
2019-05-01T01:36:05.900Z,70.2087
2019-05-01T01:38:09.320Z,70.2454
2019-05-01T01:40:13.687Z,70.2454
2019-05-01T01:42:17.381Z,70.2087
2019-05-01T01:44:21.012Z,70.2454
2019-05-01T01:46:24.483Z,70.2454
2019-05-01T01:48:28.267Z,70.4529
2019-05-01T01:50:32.064Z,70.5566
2019-05-01T01:52:34.709Z,70.5566
2019-05-01T01:54:38.423Z,70.3491
2019-05-01T01:56:42.595Z,70.1416
2019-05-01T01:58:46.375Z,70.2759
2019-05-01T02:00:50.532Z,70.2759
2019-05-01T02:02:54.232Z,69.9646
2019-05-01T02:04:58.098Z,69.6533
2019-05-01T02:07:02.478Z,69.1040
2019-05-01T02:09:06.201Z,68.6890
2019-05-01T02:11:10.183Z,68.5120
2019-05-01T02:13:13.562Z,68.5120
2019-05-01T02:15:17.218Z,68.5120
2019-05-01T02:17:20.900Z,68.6157
2019-05-01T02:19:24.385Z,68.6157
2019-05-01T02:21:28.089Z,68.8538
2019-05-01T02:23:31.971Z,68.9575
2019-05-01T02:25:35.708Z,69.0613
2019-05-01T02:27:39.436Z,69.0613
2019-05-01T02:29:43.292Z,69.0613
2019-05-01T02:31:47.139Z,69.0613
2019-05-01T02:33:51.007Z,69.0613
2019-05-01T02:35:54.738Z,68.9575
2019-05-01T02:37:58.714Z,68.7500
2019-05-01T02:40:02.619Z,68.6462
2019-05-01T02:42:06.721Z,68.6462
2019-05-01T02:44:10.574Z,68.6462
2019-05-01T02:46:14.242Z,68.5425
2019-05-01T02:48:18.327Z,68.5425
2019-05-01T02:50:22.286Z,68.5425
2019-05-01T02:52:26.325Z,68.6768
2019-05-01T02:54:30.279Z,68.6768
2019-05-01T02:56:34.093Z,68.8843
2019-05-01T02:58:37.660Z,68.8843
2019-05-01T03:00:40.620Z,68.8843
2019-05-01T03:02:45.001Z,68.7805
2019-05-01T03:04:49.118Z,68.5730
2019-05-01T03:06:52.896Z,68.4692
2019-05-01T03:08:57.800Z,68.4692
2019-05-01T03:11:01.452Z,68.3960
2019-05-01T03:13:05.211Z,68.3960
2019-05-01T03:15:08.661Z,68.4998
2019-05-01T03:17:12.189Z,68.6035
2019-05-01T03:19:15.630Z,69.3298
2019-05-01T03:21:19.365Z,70.4773
2019-05-01T03:23:23.220Z,71.6187
2019-05-01T03:25:26.834Z,72.4487
2019-05-01T03:27:30.492Z,72.9370
2019-05-01T03:29:34.103Z,73.3521
2019-05-01T03:31:37.943Z,73.7671
2019-05-01T03:33:41.820Z,74.0784
2019-05-01T03:35:45.243Z,74.4629
2019-05-01T03:37:49.125Z,74.7742
2019-05-01T03:39:52.906Z,75.0854
2019-05-01T03:41:56.768Z,75.2563
2019-05-01T03:44:00.235Z,75.4639
2019-05-01T03:46:04.001Z,75.7751
2019-05-01T03:48:07.676Z,75.9521
2019-05-01T03:50:11.650Z,76.1597
2019-05-01T03:52:15.441Z,76.3672
2019-05-01T03:54:19.165Z,76.6418
2019-05-01T03:56:23.233Z,76.9531
2019-05-01T03:58:27.030Z,77.2278
2019-05-01T04:00:30.227Z,77.6428
2019-05-01T04:02:34.636Z,78.0579
2019-05-01T04:04:38.591Z,78.4363
2019-05-01T04:06:42.485Z,78.9551
2019-05-01T04:08:46.404Z,79.4373
2019-05-01T04:10:50.275Z,79.8462
2019-05-01T04:12:53.197Z,80.3650
2019-05-01T04:14:56.027Z,80.8472
2019-05-01T04:16:59.960Z,81.2622
2019-05-01T04:19:03.637Z,81.5735
2019-05-01T04:21:07.662Z,81.8420
2019-05-01T04:23:11.693Z,82.2571
2019-05-01T04:25:15.725Z,82.6721
2019-05-01T04:27:19.160Z,82.9834
2019-05-01T04:29:22.848Z,83.2947
2019-05-01T04:31:26.534Z,83.5632
2019-05-01T04:33:30.433Z,83.6670
2019-05-01T04:35:34.196Z,83.9783
2019-05-01T04:37:38.385Z,84.2896
2019-05-01T04:39:42.280Z,84.9121
2019-05-01T04:41:46.103Z,85.2173
2019-05-01T04:43:49.814Z,85.5957
2019-05-01T04:45:53.284Z,85.8032
2019-05-01T04:47:57.387Z,85.8032
2019-05-01T04:50:01.121Z,85.9070
2019-05-01T04:52:04.528Z,86.0718
2019-05-01T04:54:08.204Z,86.1755
2019-05-01T04:56:12.124Z,86.4868
2019-05-01T04:58:15.910Z,86.5479
2019-05-01T05:00:20.182Z,86.6516
2019-05-01T05:02:23.868Z,86.9629
2019-05-01T05:04:28.207Z,87.2681
2019-05-01T05:06:32.071Z,87.4756
2019-05-01T05:08:35.827Z,87.3352
2019-05-01T05:10:39.691Z,87.4390
2019-05-01T05:12:43.553Z,87.4390
2019-05-01T05:14:48.340Z,87.9517
2019-05-01T05:16:52.300Z,87.9517
2019-05-01T05:18:56.160Z,88.4705
2019-05-01T05:21:00.304Z,88.5315
2019-05-01T05:23:04.069Z,88.5315
2019-05-01T05:25:08.153Z,88.6353
2019-05-01T05:27:11.392Z,88.9465
2019-05-01T05:29:15.182Z,88.9038
2019-05-01T05:31:19.036Z,89.1113
2019-05-01T05:33:22.865Z,89.1113
2019-05-01T05:35:26.051Z,89.2151
2019-05-01T05:37:30.098Z,89.2761
2019-05-01T05:39:33.892Z,89.5813
2019-05-01T05:41:37.935Z,89.6851
2019-05-01T05:43:41.741Z,89.7461
2019-05-01T05:45:45.568Z,89.7461
2019-05-01T05:47:49.559Z,89.7461
2019-05-01T05:49:53.361Z,89.8499
2019-05-01T05:51:57.318Z,89.8499
2019-05-01T05:54:01.193Z,90.2222
2019-05-01T05:56:05.104Z,90.4297
2019-05-01T05:58:09.283Z,90.9424
2019-05-01T06:00:12.251Z,91.3574
2019-05-01T06:02:16.504Z,91.0034
2019-05-01T06:04:20.807Z,91.0034
2019-05-01T06:06:25.312Z,91.2109
2019-05-01T06:08:29.508Z,91.8274
2019-05-01T06:10:33.796Z,91.7847
2019-05-01T06:12:37.275Z,91.8884
2019-05-01T06:14:41.234Z,92.0959
2019-05-01T06:16:46.889Z,92.0532
2019-05-01T06:18:53.787Z,91.7419
2019-05-01T06:21:02.272Z,91.7419
2019-05-01T06:23:07.155Z,92.0532
2019-05-01T06:25:21.243Z,92.3584
2019-05-01T06:27:20.630Z,92.0532
2019-05-01T06:29:24.990Z,92.6697
2019-05-01T06:31:29.412Z,92.9321
2019-05-01T06:33:43.833Z,92.7307
2019-05-01T06:35:42.857Z,92.6270
2019-05-01T06:37:47.283Z,93.1396
2019-05-01T06:39:51.678Z,93.4448
2019-05-01T06:41:55.869Z,93.6096
2019-05-01T06:44:02.189Z,93.6096
2019-05-01T06:46:08.042Z,93.4631
2019-05-01T06:48:14.199Z,93.4631
2019-05-01T06:50:21.800Z,92.7429
2019-05-01T06:52:29.396Z,92.6392
2019-05-01T06:54:35.169Z,93.3594
2019-05-01T06:56:39.518Z,93.6707
2019-05-01T06:58:43.916Z,94.4885
2019-05-01T07:00:48.498Z,94.8547
2019-05-01T07:02:52.761Z,94.5496
2019-05-01T07:04:57.175Z,94.4458
2019-05-01T07:07:02.010Z,94.2444
2019-05-01T07:09:06.966Z,94.7083
2019-05-01T07:11:16.628Z,95.4285
2019-05-01T07:13:21.059Z,95.8984
2019-05-01T07:15:26.847Z,96.2036
2019-05-01T07:17:33.341Z,95.7947
2019-05-01T07:19:40.350Z,95.7520
2019-05-01T07:21:44.831Z,95.3430
2019-05-01T07:23:52.203Z,95.5444
2019-05-01T07:25:57.555Z,95.3430
2019-05-01T07:28:01.900Z,95.3979
2019-05-01T07:30:06.271Z,95.1965
2019-05-01T07:32:16.408Z,95.1965
2019-05-01T07:34:21.767Z,95.4590
2019-05-01T07:36:30.057Z,95.0500
2019-05-01T07:38:38.192Z,95.2515
2019-05-01T07:40:43.350Z,95.1050
2019-05-01T07:42:48.193Z,94.8975
2019-05-01T07:44:52.739Z,95.5139
2019-05-01T07:46:57.021Z,95.5750
2019-05-01T07:49:01.284Z,95.9839
2019-05-01T07:51:07.115Z,96.3440
2019-05-01T07:53:13.282Z,96.2463
2019-05-01T07:55:18.257Z,95.9351
2019-05-01T07:57:23.108Z,95.6299
2019-05-01T07:59:28.762Z,96.1975
2019-05-01T08:01:33.145Z,96.1975
2019-05-01T08:03:38.001Z,96.2585
2019-05-01T08:05:46.832Z,96.3562
2019-05-01T08:07:51.269Z,96.1121
2019-05-01T08:09:54.713Z,96.3135
2019-05-01T08:11:59.024Z,95.8618
2019-05-01T08:14:07.518Z,95.9595
2019-05-01T08:16:10.892Z,96.2219
2019-05-01T08:18:15.557Z,96.2219
2019-05-01T08:20:20.256Z,96.0205
2019-05-01T08:22:24.391Z,95.8740
2019-05-01T08:24:28.685Z,95.7275
2019-05-01T08:26:33.568Z,95.5811
2019-05-01T08:28:37.838Z,95.3308
2019-05-01T08:30:42.204Z,94.8242
2019-05-01T08:32:45.702Z,94.6289
2019-05-01T08:34:49.961Z,93.9331
2019-05-01T08:36:54.262Z,92.9321
2019-05-01T08:38:58.636Z,92.6270
2019-05-01T08:41:02.698Z,92.1204
2019-05-01T08:43:07.181Z,90.6555
2019-05-01T08:45:11.576Z,90.5090
2019-05-01T08:47:15.956Z,89.7156
2019-05-01T08:49:20.265Z,89.0625
2019-05-01T08:51:24.605Z,87.5061
2019-05-01T08:53:28.224Z,86.4502
2019-05-01T08:55:32.635Z,85.9009
2019-05-01T08:57:39.195Z,86.0657
2019-05-01T08:59:44.888Z,85.1135
2019-05-01T09:01:50.569Z,84.5703
2019-05-01T09:03:58.528Z,83.7585
2019-05-01T09:06:02.042Z,83.4167
2019-05-01T09:08:05.376Z,82.2693
2019-05-01T09:10:09.361Z,81.4209
2019-05-01T09:12:13.609Z,80.7800
2019-05-01T09:14:18.166Z,79.9316
2019-05-01T09:16:23.350Z,79.4312
2019-05-01T09:18:32.076Z,79.2908
2019-05-01T09:20:36.410Z,79.0527
2019-05-01T09:22:40.870Z,79.0161
2019-05-01T09:24:45.528Z,79.1138
2019-05-01T09:26:51.437Z,78.4729
2019-05-01T09:28:55.616Z,78.2715
2019-05-01T09:31:02.097Z,77.8320
2019-05-01T09:33:08.047Z,77.3315
2019-05-01T09:35:16.046Z,77.1973
2019-05-01T09:37:20.702Z,76.2878
2019-05-01T09:39:25.061Z,75.3845
2019-05-01T09:41:37.942Z,75.0854
2019-05-01T09:43:38.608Z,74.4446
2019-05-01T09:45:42.661Z,74.4446
2019-05-01T09:47:46.346Z,74.6460
2019-05-01T09:49:54.078Z,74.2065
2019-05-01T09:51:58.261Z,74.3103
2019-05-01T09:54:05.573Z,73.5718
2019-05-01T09:56:11.342Z,72.7661
2019-05-01T09:58:15.073Z,73.4680
2019-05-01T10:00:19.529Z,73.1689
2019-05-01T10:02:23.644Z,73.7366
2019-05-01T10:04:30.195Z,73.9380
2019-05-01T10:06:36.833Z,73.6023
2019-05-01T10:08:41.902Z,73.1995
2019-05-01T10:10:46.452Z,73.1628
2019-05-01T10:12:51.126Z,73.5657
2019-05-01T10:14:55.520Z,73.7671
2019-05-01T10:16:59.229Z,73.6694
2019-05-01T10:19:03.315Z,73.5291
2019-05-01T10:21:07.864Z,73.1323
2019-05-01T10:23:13.170Z,72.5952
2019-05-01T10:25:19.138Z,72.0947
2019-05-01T10:27:23.616Z,71.2952
2019-05-01T10:29:27.959Z,71.3928
2019-05-01T10:31:32.427Z,71.6614
2019-05-01T10:33:36.567Z,69.9585
2019-05-01T10:35:42.727Z,69.4580
2019-05-01T10:37:47.297Z,69.6594
2019-05-01T10:39:54.015Z,69.6594
2019-05-01T10:42:00.024Z,70.0562
2019-05-01T10:44:04.986Z,70.4590
2019-05-01T10:46:09.301Z,70.3613
2019-05-01T10:48:13.748Z,70.7581
2019-05-01T10:50:18.405Z,70.5566
2019-05-01T10:52:22.717Z,69.7571
2019-05-01T10:54:27.264Z,69.6228
2019-05-01T10:56:31.335Z,69.7266
2019-05-01T10:58:35.622Z,69.6228
2019-05-01T11:00:39.955Z,69.5251
2019-05-01T11:02:44.355Z,69.4946
2019-05-01T11:04:49.133Z,69.2932
2019-05-01T11:06:53.429Z,69.9890
2019-05-01T11:08:57.724Z,67.7917
2019-05-01T11:11:02.147Z,68.3899
2019-05-01T11:13:07.811Z,69.0918
2019-05-01T11:15:11.741Z,69.8914
2019-05-01T11:17:14.765Z,69.2932
2019-05-01T11:19:18.348Z,68.9941
2019-05-01T11:21:22.792Z,69.2932
2019-05-01T11:23:26.889Z,69.3909
2019-05-01T11:25:31.219Z,69.7571
2019-05-01T11:27:35.000Z,69.4580
2019-05-01T11:29:38.912Z,69.1589
2019-05-01T11:31:43.372Z,69.5618
2019-05-01T11:33:47.405Z,68.5608
2019-05-01T11:35:51.509Z,68.1580
2019-05-01T11:37:55.117Z,66.4307
2019-05-01T11:39:58.545Z,66.6260
2019-05-01T11:42:02.203Z,66.9312
2019-05-01T11:44:05.671Z,65.9302
2019-05-01T11:46:09.941Z,65.4297
2019-05-01T11:48:13.873Z,65.6311
2019-05-01T11:50:17.608Z,65.9302
2019-05-01T11:52:21.736Z,65.9302
2019-05-01T11:54:25.354Z,65.8264
2019-05-01T11:56:29.385Z,66.4307
2019-05-01T11:58:33.326Z,66.6260
2019-05-01T12:00:37.177Z,64.5325
2019-05-01T12:02:41.177Z,62.6343
2019-05-01T12:04:44.620Z,62.7319
2019-05-01T12:06:48.173Z,61.6333
2019-05-01T12:08:51.870Z,60.1379
2019-05-01T12:10:55.700Z,60.1379
2019-05-01T12:12:59.669Z,60.4614
2019-05-01T12:15:03.108Z,60.4614
2019-05-01T12:17:06.844Z,60.6628
2019-05-01T12:19:10.366Z,62.2925
2019-05-01T12:21:14.169Z,63.8916
2019-05-01T12:23:17.994Z,63.4644
2019-05-01T12:25:21.738Z,60.8643
2019-05-01T12:27:25.635Z,58.8623
2019-05-01T12:29:29.215Z,58.2947
2019-05-01T12:31:33.367Z,56.4941
2019-05-01T12:33:36.575Z,57.9224
2019-05-01T12:35:40.359Z,58.5205
2019-05-01T12:37:44.038Z,62.0239
2019-05-01T12:39:48.439Z,61.0229
2019-05-01T12:41:52.627Z,61.6211
2019-05-01T12:43:56.623Z,61.2244
2019-05-01T12:46:00.295Z,59.6191
2019-05-01T12:48:03.730Z,59.1187
2019-05-01T12:50:07.452Z,58.7219
2019-05-01T12:52:11.129Z,58.4473
2019-05-01T12:54:15.102Z,59.4238
2019-05-01T12:56:18.805Z,60.8215
2019-05-01T12:58:23.027Z,61.4502
2019-05-01T13:00:27.266Z,60.1501
2019-05-01T13:02:30.973Z,59.0515
2019-05-01T13:04:35.164Z,61.0535
2019-05-01T13:06:48.919Z,61.3525
2019-05-01T13:08:47.734Z,61.6516
2019-05-01T13:10:51.461Z,62.7502
2019-05-01T13:12:55.081Z,62.6221
2019-05-01T13:14:58.888Z,63.3240
2019-05-01T13:17:02.724Z,61.3953
2019-05-01T13:19:06.725Z,60.7910
2019-05-01T13:21:10.521Z,60.8643
2019-05-01T13:23:13.925Z,57.8674
2019-05-01T13:25:17.713Z,55.7678
2019-05-01T13:27:21.568Z,56.7688
2019-05-01T13:29:25.251Z,58.4656
2019-05-01T13:31:29.089Z,57.6660
2019-05-01T13:33:32.874Z,55.7678
2019-05-01T13:35:37.086Z,55.0659
2019-05-01T13:37:40.963Z,53.4668
2019-05-01T13:39:44.602Z,53.7659
2019-05-01T13:41:48.617Z,54.8645
2019-05-01T13:43:52.380Z,56.4636
2019-05-01T13:45:56.348Z,57.5684
2019-05-01T13:47:59.993Z,55.3406
2019-05-01T13:50:03.951Z,55.9387
2019-05-01T13:52:07.673Z,55.8411
2019-05-01T13:54:11.376Z,51.5198
2019-05-01T13:56:15.022Z,52.6184
2019-05-01T13:58:18.726Z,52.5208
2019-05-01T14:00:22.703Z,53.2898
2019-05-01T14:02:26.435Z,54.6143
2019-05-01T14:04:30.295Z,55.9143
2019-05-01T14:06:34.223Z,55.7129
2019-05-01T14:08:38.012Z,56.9824
2019-05-01T14:10:41.907Z,58.4839
2019-05-01T14:12:45.673Z,58.7830
2019-05-01T14:14:49.528Z,58.7830
2019-05-01T14:16:53.474Z,55.3589
2019-05-01T14:18:57.421Z,54.6631
2019-05-01T14:21:01.210Z,54.6387
2019-05-01T14:23:04.886Z,54.8340
2019-05-01T14:25:08.358Z,55.2368
2019-05-01T14:27:12.340Z,55.3345
2019-05-01T14:29:16.064Z,53.6377
2019-05-01T14:31:19.488Z,55.2063
2019-05-01T14:33:23.045Z,56.3049
2019-05-01T14:35:26.945Z,57.0312
2019-05-01T14:37:30.690Z,56.2561
2019-05-01T14:39:34.371Z,55.6335
2019-05-01T14:41:38.305Z,55.7312
2019-05-01T14:43:42.325Z,55.8350
2019-05-01T14:45:45.731Z,53.9368
2019-05-01T14:47:50.195Z,55.9326
2019-05-01T14:49:54.127Z,57.3547
2019-05-01T14:51:57.843Z,57.7576
2019-05-01T14:54:01.568Z,58.6548
2019-05-01T14:56:05.313Z,58.4534
2019-05-01T14:58:09.365Z,56.2561
2019-05-01T15:00:13.267Z,56.2317
2019-05-01T15:02:17.169Z,54.5349
2019-05-01T15:04:20.619Z,55.6335
2019-05-01T15:06:24.369Z,55.8350
2019-05-01T15:08:28.242Z,55.1331
2019-05-01T15:10:32.129Z,53.9124
2019-05-01T15:12:36.239Z,52.6184
2019-05-01T15:14:39.913Z,50.1282
2019-05-01T15:16:43.659Z,50.8240
2019-05-01T15:18:47.538Z,49.4263
2019-05-01T15:20:50.984Z,50.3235
2019-05-01T15:22:54.597Z,49.8474
2019-05-01T15:24:58.409Z,50.0488
2019-05-01T15:27:22.726Z,49.6521
2019-05-01T15:29:27.198Z,50.5737
2019-05-01T15:31:31.557Z,49.2737
2019-05-01T15:33:35.858Z,48.0774
2019-05-01T15:35:40.266Z,47.5769
2019-05-01T15:37:56.033Z,47.5769
2019-05-01T15:39:53.753Z,46.8811
2019-05-01T15:41:58.142Z,47.7783
2019-05-01T15:44:02.294Z,46.1060
2019-05-01T15:46:06.568Z,46.7041
2019-05-01T15:48:10.864Z,48.0042
2019-05-01T15:50:15.282Z,49.7192
2019-05-01T15:52:19.644Z,48.8220
2019-05-01T15:54:23.840Z,48.7244
2019-05-01T15:56:27.999Z,49.1455
2019-05-01T15:58:32.292Z,49.8474
2019-05-01T16:00:36.363Z,51.1475
2019-05-01T16:02:40.765Z,51.2695
2019-05-01T16:04:45.056Z,51.8677
2019-05-01T16:06:49.661Z,52.2705
2019-05-01T16:08:54.039Z,52.1667
2019-05-01T16:10:58.406Z,51.0681
2019-05-01T16:13:02.792Z,48.2727
2019-05-01T16:15:07.128Z,46.4722
2019-05-01T16:17:11.198Z,47.6929
2019-05-01T16:19:15.462Z,48.3948
2019-05-01T16:21:20.011Z,48.3154
2019-05-01T16:23:24.332Z,49.0173
2019-05-01T16:25:28.588Z,50.1404
2019-05-01T16:27:33.298Z,50.8423
2019-05-01T16:29:37.694Z,51.2695
2019-05-01T16:31:42.230Z,51.0681
2019-05-01T16:33:46.358Z,51.9897
2019-05-01T16:35:50.721Z,52.6917
2019-05-01T16:37:55.075Z,52.8931
2019-05-01T16:39:59.447Z,52.2949
2019-05-01T16:42:03.824Z,52.0142
2019-05-01T16:44:08.312Z,50.6165
2019-05-01T16:46:12.609Z,50.8118
2019-05-01T16:48:16.954Z,50.7141
2019-05-01T16:50:21.052Z,50.9399
2019-05-01T16:52:25.420Z,52.0691
2019-05-01T16:54:29.746Z,52.6672
2019-05-01T16:56:34.117Z,52.8931
2019-05-01T16:58:38.381Z,53.2959
2019-05-01T17:00:42.684Z,53.7231
2019-05-01T17:02:47.079Z,53.0212
2019-05-01T17:04:51.681Z,53.0212
2019-05-01T17:06:56.052Z,52.0142
2019-05-01T17:09:00.483Z,52.1179
2019-05-01T17:11:04.586Z,52.7405
2019-05-01T17:13:08.904Z,53.2715
2019-05-01T17:15:13.247Z,53.8757
2019-05-01T17:17:17.771Z,54.3030
2019-05-01T17:19:22.110Z,55.0293
2019-05-01T17:21:26.456Z,54.4312
2019-05-01T17:23:30.520Z,54.7302
2019-05-01T17:25:34.935Z,55.0598
2019-05-01T17:27:39.059Z,55.1575
2019-05-01T17:29:43.393Z,55.6885
2019-05-01T17:31:47.711Z,55.8899
2019-05-01T17:33:55.569Z,56.3171
2019-05-01T17:36:01.532Z,56.6467
2019-05-01T17:38:05.946Z,56.9519
2019-05-01T17:40:10.182Z,57.1777
2019-05-01T17:42:14.571Z,57.4097
2019-05-01T17:44:20.161Z,57.7087
2019-05-01T17:46:27.533Z,57.9407
2019-05-01T17:48:33.614Z,58.1726
2019-05-01T17:50:39.149Z,58.3008
2019-05-01T17:52:43.603Z,58.5022
2019-05-01T17:54:48.055Z,58.6304
2019-05-01T17:56:53.742Z,58.7585
2019-05-01T17:59:00.311Z,58.9600
2019-05-01T18:01:04.389Z,58.9905
2019-05-01T18:03:08.931Z,59.1187
2019-05-01T18:05:12.930Z,59.3445
2019-05-01T18:07:17.231Z,59.3750
2019-05-01T18:09:21.459Z,59.5032
2019-05-01T18:11:25.970Z,59.6313
2019-05-01T18:13:30.460Z,59.6619
2019-05-01T18:15:34.787Z,59.6924
2019-05-01T18:17:39.076Z,59.6191
2019-05-01T18:19:43.306Z,59.6436
2019-05-01T18:21:51.948Z,59.5703
2019-05-01T18:23:56.399Z,59.6008
2019-05-01T18:26:04.748Z,59.6252
2019-05-01T18:28:10.367Z,59.5520
2019-05-01T18:30:15.803Z,59.5825
2019-05-01T18:32:23.873Z,59.6069
2019-05-01T18:34:28.237Z,59.6375
2019-05-01T18:36:32.585Z,59.6619
2019-05-01T18:38:37.008Z,59.6924
2019-05-01T18:40:41.312Z,59.8206
2019-05-01T18:42:45.351Z,59.8511
2019-05-01T18:44:49.635Z,59.9548
2019-05-01T18:46:54.027Z,59.9792
2019-05-01T18:48:58.326Z,60.0098
2019-05-01T18:51:02.533Z,59.9365
2019-05-01T18:53:11.010Z,59.9365
2019-05-01T18:55:15.787Z,59.9609
2019-05-01T18:57:20.015Z,59.9915
2019-05-01T18:59:24.112Z,60.2234
2019-05-01T19:01:28.415Z,60.4248
2019-05-01T19:03:37.069Z,60.4553
2019-05-01T19:05:43.115Z,60.6628
2019-05-01T19:07:51.329Z,60.7910
2019-05-01T19:09:55.678Z,60.9192
2019-05-01T19:12:00.001Z,60.9192
2019-05-01T19:14:04.426Z,61.0535
2019-05-01T19:16:09.941Z,61.3586
2019-05-01T19:18:14.109Z,61.6699
2019-05-01T19:20:17.245Z,62.0056
2019-05-01T19:22:21.444Z,62.0056
2019-05-01T19:24:25.768Z,61.9019
2019-05-01T19:26:30.039Z,62.2375
2019-05-01T19:28:34.177Z,63.5742
2019-05-01T19:30:37.683Z,66.8640
2019-05-01T19:32:41.127Z,63.8123
2019-05-01T19:34:44.646Z,63.2935
2019-05-01T19:36:48.122Z,63.1958
2019-05-01T19:38:51.580Z,63.1958
2019-05-01T19:40:56.052Z,63.2202
2019-05-01T19:43:00.427Z,63.2202
2019-05-01T19:45:03.837Z,63.5315
2019-05-01T19:47:07.968Z,68.5669
2019-05-01T19:49:12.237Z,67.2607
2019-05-01T19:51:19.154Z,64.3860
2019-05-01T19:53:24.539Z,64.0747
2019-05-01T19:55:28.899Z,63.9709
2019-05-01T19:57:33.337Z,64.0015
2019-05-01T19:59:37.476Z,63.8977
2019-05-01T20:01:44.067Z,64.0015
2019-05-01T20:03:49.552Z,64.0015
2019-05-01T20:05:53.831Z,64.1052
2019-05-01T20:07:57.923Z,64.0015
2019-05-01T20:10:02.050Z,64.0015
2019-05-01T20:12:05.650Z,63.9282
2019-05-01T20:14:10.329Z,63.8245
2019-05-01T20:16:14.638Z,63.7207
2019-05-01T20:18:19.007Z,63.7207
2019-05-01T20:20:23.265Z,63.7207
2019-05-01T20:22:26.992Z,63.6169
2019-05-01T20:24:31.459Z,63.4155
2019-05-01T20:26:35.699Z,63.2080
2019-05-01T20:28:40.030Z,63.0005
2019-05-01T20:30:44.521Z,62.9272
2019-05-01T20:32:48.710Z,62.8235
2019-05-01T20:34:53.906Z,62.8235
2019-05-01T20:36:58.380Z,62.8235
2019-05-01T20:39:02.720Z,62.9578
2019-05-01T20:41:10.373Z,62.9578
2019-05-01T20:43:16.570Z,62.8540
2019-05-01T20:45:20.163Z,62.7502
2019-05-01T20:47:34.869Z,62.6465
2019-05-01T20:49:36.410Z,62.5427
2019-05-01T20:51:43.005Z,62.4390
2019-05-01T20:53:47.062Z,62.5427
2019-05-01T20:55:51.322Z,62.5427
2019-05-01T20:57:55.698Z,62.4390
2019-05-01T21:00:00.135Z,62.4390
2019-05-01T21:02:08.096Z,62.4695
2019-05-01T21:04:14.094Z,62.4390
2019-05-01T21:06:18.222Z,62.3657
2019-05-01T21:08:22.529Z,62.2620
2019-05-01T21:10:29.952Z,62.2620
2019-05-01T21:12:35.269Z,62.2620
2019-05-01T21:14:38.703Z,62.2620
2019-05-01T21:16:42.553Z,62.1643
2019-05-01T21:18:47.109Z,62.1643
2019-05-01T21:20:51.566Z,62.2620
2019-05-01T21:22:55.874Z,62.2925
2019-05-01T21:25:00.250Z,62.2925
2019-05-01T21:27:04.244Z,62.2925
2019-05-01T21:29:08.985Z,62.2925
2019-05-01T21:31:13.797Z,62.2925
2019-05-01T21:33:18.271Z,62.2925
2019-05-01T21:35:23.948Z,62.2925
2019-05-01T21:37:28.493Z,62.2925
2019-05-01T21:39:33.446Z,62.2925
2019-05-01T21:41:37.570Z,62.2192
2019-05-01T21:43:42.495Z,62.2192
2019-05-01T21:45:46.907Z,62.2192
2019-05-01T21:47:52.840Z,62.2192
2019-05-01T21:49:57.508Z,62.2192
2019-05-01T21:52:03.628Z,62.2498
2019-05-01T21:54:09.214Z,62.2498
2019-05-01T21:56:13.518Z,62.2498
2019-05-01T21:58:21.025Z,62.2498
2019-05-01T22:00:27.323Z,62.3779
2019-05-01T22:02:31.397Z,62.3779
2019-05-01T22:04:35.685Z,62.4817
2019-05-01T22:06:40.013Z,62.5854
2019-05-01T22:08:44.337Z,62.7930
2019-05-01T22:10:52.005Z,62.8967
2019-05-01T22:12:56.888Z,63.0310
2019-05-01T22:15:01.175Z,62.9272
2019-05-01T22:17:05.608Z,62.9272
2019-05-01T22:19:09.576Z,62.9272
2019-05-01T22:21:13.845Z,63.0310
2019-05-01T22:23:21.930Z,63.1348
2019-05-01T22:25:26.975Z,63.1348
2019-05-01T22:27:31.402Z,63.1348
2019-05-01T22:29:35.727Z,63.1348
2019-05-01T22:31:39.567Z,63.0310
2019-05-01T22:33:43.890Z,63.0310
2019-05-01T22:35:48.288Z,63.1348
2019-05-01T22:37:52.385Z,63.0310
2019-05-01T22:39:56.722Z,62.9272
2019-05-01T22:42:01.035Z,62.8235
2019-05-01T22:44:05.319Z,62.8235
2019-05-01T22:46:09.671Z,62.7197
2019-05-01T22:48:13.975Z,62.6160
2019-05-01T22:50:18.443Z,62.6160
2019-05-01T22:52:22.589Z,62.6160
2019-05-01T22:54:26.951Z,62.7502
2019-05-01T22:56:32.128Z,62.7502
2019-05-01T22:58:36.494Z,62.7502
2019-05-01T23:00:40.757Z,62.8540
2019-05-01T23:02:45.075Z,62.8540
2019-05-01T23:04:52.089Z,62.7502
2019-05-01T23:06:56.595Z,62.6465
2019-05-01T23:09:00.038Z,62.6465
2019-05-01T23:11:03.164Z,62.6465
2019-05-01T23:13:07.251Z,62.6709
2019-05-01T23:15:11.785Z,62.6709
2019-05-01T23:17:16.084Z,62.6709
2019-05-01T23:19:22.760Z,62.7747
2019-05-01T23:21:29.762Z,62.7747
2019-05-01T23:23:34.044Z,62.8784
2019-05-01T23:25:41.236Z,62.8784
2019-05-01T23:27:46.730Z,62.8784
2019-05-01T23:29:50.990Z,62.8784
2019-05-01T23:31:55.207Z,62.7747
2019-05-01T23:33:59.569Z,62.7747
2019-05-01T23:36:03.856Z,62.6709
2019-05-01T23:38:08.255Z,62.7014
2019-05-01T23:40:15.586Z,62.8052
2019-05-01T23:42:21.227Z,62.7014
2019-05-01T23:44:25.476Z,62.5977
2019-05-01T23:46:29.137Z,62.5977
2019-05-01T23:48:33.502Z,62.7014
2019-05-01T23:50:37.555Z,62.7014
2019-05-01T23:52:40.715Z,62.7014
2019-05-01T23:54:44.173Z,62.4939
2019-05-01T23:56:48.634Z,62.4939
2019-05-01T23:58:51.755Z,62.3901
